Time;durP1;ratioP1;P1;durP2;ratioP2;P2;SDS_P1;SDS_P2;PMS_P1;PMS_P2;Temp;Humidity;BMP_temperature;BMP_pressure;BME280_temperature;BME280_humidity;BME280_pressure;Samples;Min_cycle;Max_cycle;Signal;HPM_P1;HPM_P2
2023/06/23 00:01:20;;;;;;;39.78;26.83;;;17.60;99.90;;;;;;5084318;28;20373;-70
2023/06/23 00:03:46;;;;;;;37.83;26.83;;;17.60;99.90;;;;;;5089133;28;20148;-70
2023/06/23 00:06:13;;;;;;;37.40;26.42;;;17.60;99.90;;;;;;5092068;28;20066;-70
2023/06/23 00:08:39;;;;;;;35.30;24.98;;;17.50;99.90;;;;;;5087150;28;20024;-68
2023/06/23 00:11:08;;;;;;;35.05;23.42;;;17.50;99.90;;;;;;5091142;28;20032;-72
2023/06/23 00:13:34;;;;;;;32.47;23.25;;;17.40;99.90;;;;;;5073341;28;20029;-69
2023/06/23 00:16:06;;;;;;;34.38;22.70;;;17.40;99.90;;;;;;5073652;28;20096;-71
2023/06/23 00:18:36;;;;;;;31.38;19.88;;;17.40;99.90;;;;;;5092257;28;20165;-69
2023/06/23 00:21:02;;;;;;;30.42;18.17;;;17.40;99.90;;;;;;5096545;28;20433;-69
2023/06/23 00:23:29;;;;;;;25.20;17.30;;;17.30;99.90;;;;;;5080105;28;20553;-69
2023/06/23 00:25:55;;;;;;;28.77;17.92;;;17.30;99.90;;;;;;5073863;28;20021;-68
2023/06/23 00:28:20;;;;;;;29.50;18.20;;;17.30;99.90;;;;;;5075850;28;20765;-70
2023/06/23 00:30:46;;;;;;;27.05;18.45;;;17.30;99.90;;;;;;5082248;28;20085;-68
2023/06/23 00:33:12;;;;;;;27.63;17.58;;;17.30;99.90;;;;;;5087404;28;20059;-68
2023/06/23 00:35:38;;;;;;;26.90;18.08;;;17.20;99.90;;;;;;5072647;28;20032;-68
2023/06/23 00:38:04;;;;;;;29.00;19.35;;;17.20;99.90;;;;;;5076671;28;20032;-69
2023/06/23 00:40:29;;;;;;;37.88;22.50;;;17.20;99.90;;;;;;5093886;28;20428;-70
2023/06/23 00:42:55;;;;;;;39.53;23.63;;;17.20;99.90;;;;;;5103676;28;20141;-69
2023/06/23 00:45:22;;;;;;;37.83;23.38;;;17.20;99.90;;;;;;5093416;28;20028;-69
2023/06/23 00:47:49;;;;;;;38.25;24.95;;;17.10;99.90;;;;;;5093577;28;20044;-69
2023/06/23 00:50:17;;;;;;;47.17;30.00;;;17.10;99.90;;;;;;5082970;28;20024;-69
2023/06/23 00:52:51;;;;;;;45.80;27.50;;;17.10;99.90;;;;;;5072917;28;20423;-68
2023/06/23 00:55:25;;;;;;;43.25;28.63;;;17.10;99.90;;;;;;5081537;28;20082;-68
2023/06/23 00:57:52;;;;;;;46.95;27.58;;;17.10;99.90;;;;;;5093152;28;20684;-69
2023/06/23 01:00:19;;;;;;;44.17;28.27;;;17.10;99.90;;;;;;5073027;28;20016;-69
2023/06/23 01:02:49;;;;;;;41.78;26.90;;;17.10;99.90;;;;;;5073249;28;20525;-69
2023/06/23 01:05:21;;;;;;;43.47;27.63;;;17.20;99.90;;;;;;5072143;28;20021;-68
2023/06/23 01:07:57;;;;;;;53.65;29.33;;;17.10;99.90;;;;;;5089286;28;20040;-68
2023/06/23 01:11:03;;;;;;;42.35;27.77;;;17.10;99.90;;;;;;5092806;28;20064;-68
2023/06/23 01:13:44;;;;;;;45.30;27.08;;;17.20;99.90;;;;;;5092690;28;20035;-69
2023/06/23 01:16:19;;;;;;;45.55;27.95;;;17.10;99.90;;;;;;5092673;28;20062;-68
2023/06/23 01:18:53;;;;;;;45.70;27.02;;;17.20;99.90;;;;;;5092757;28;20034;-68
2023/06/23 01:21:29;;;;;;;45.00;26.50;;;17.10;99.90;;;;;;5085755;28;20016;-68
2023/06/23 01:24:20;;;;;;;43.85;25.88;;;17.20;99.90;;;;;;5085889;28;20065;-68
2023/06/23 01:26:59;;;;;;;45.80;27.42;;;17.10;99.90;;;;;;5088097;28;20043;-68
2023/06/23 01:29:29;;;;;;;45.95;25.55;;;17.20;99.90;;;;;;5085466;28;20032;-68
2023/06/23 01:32:00;;;;;;;45.75;27.30;;;17.20;99.90;;;;;;5084360;28;20109;-68
2023/06/23 01:34:41;;;;;;;43.55;27.08;;;17.20;99.90;;;;;;5092198;28;20044;-68
2023/06/23 01:37:19;;;;;;;43.25;26.42;;;17.20;99.90;;;;;;5100656;28;20040;-69
2023/06/23 01:39:52;;;;;;;50.03;27.75;;;17.20;99.90;;;;;;5092684;28;20020;-68
2023/06/23 01:42:22;;;;;;;49.03;27.88;;;17.20;99.90;;;;;;5092110;28;20020;-69
2023/06/23 01:44:55;;;;;;;48.22;27.88;;;17.10;99.90;;;;;;5092368;28;20132;-68
2023/06/23 01:47:26;;;;;;;51.03;28.48;;;17.10;99.90;;;;;;5092563;28;20046;-67
2023/06/23 01:49:58;;;;;;;47.13;28.85;;;17.10;99.90;;;;;;5092703;28;20040;-68
2023/06/23 01:52:25;;;;;;;50.40;28.50;;;17.10;99.90;;;;;;5092212;28;20375;-69
2023/06/23 01:54:52;;;;;;;51.60;28.60;;;17.10;99.90;;;;;;5091435;28;20261;-68
2023/06/23 01:57:20;;;;;;;47.58;28.50;;;17.10;99.90;;;;;;5092071;28;20032;-68
2023/06/23 01:59:47;;;;;;;52.28;30.15;;;17.00;99.90;;;;;;5092533;28;20082;-69
2023/06/23 02:02:15;;;;;;;54.38;31.35;;;17.00;99.90;;;;;;5091968;28;20387;-68
2023/06/23 02:04:45;;;;;;;54.38;31.45;;;17.00;99.90;;;;;;5092262;28;20020;-68
2023/06/23 02:07:12;;;;;;;53.53;30.35;;;17.00;99.90;;;;;;5091139;28;20032;-68
2023/06/23 02:09:41;;;;;;;54.25;30.52;;;17.00;99.90;;;;;;5078394;28;20475;-68
2023/06/23 02:12:08;;;;;;;47.17;27.90;;;17.00;99.90;;;;;;5079455;28;20128;-67
2023/06/23 02:14:37;;;;;;;48.70;27.02;;;17.00;99.90;;;;;;5078156;28;20107;-67
2023/06/23 02:17:10;;;;;;;45.53;26.98;;;17.00;99.90;;;;;;5087993;28;20048;-67
2023/06/23 02:19:41;;;;;;;41.40;24.27;;;17.00;99.90;;;;;;5091070;28;20125;-68
2023/06/23 02:22:11;;;;;;;42.47;24.52;;;16.90;99.90;;;;;;5078514;28;20085;-69
2023/06/23 02:24:38;;;;;;;40.55;23.88;;;17.00;99.90;;;;;;5071896;28;20035;-68
2023/06/23 02:27:05;;;;;;;38.28;22.55;;;17.00;99.90;;;;;;5087762;28;20468;-68
2023/06/23 02:29:35;;;;;;;48.08;25.20;;;17.00;99.90;;;;;;5080544;28;20033;-67
2023/06/23 02:32:00;;;;;;;42.42;24.20;;;17.00;99.90;;;;;;5077314;28;20482;-67
2023/06/23 02:34:26;;;;;;;47.33;24.73;;;17.00;99.90;;;;;;5076345;28;20044;-68
2023/06/23 02:36:58;;;;;;;48.38;27.30;;;16.90;99.90;;;;;;5078948;28;20468;-66
2023/06/23 02:39:26;;;;;;;57.90;30.27;;;17.00;99.90;;;;;;5087709;28;20468;-67
2023/06/23 02:41:56;;;;;;;56.90;29.13;;;16.90;99.90;;;;;;5089094;28;20628;-67
2023/06/23 02:44:35;;;;;;;55.10;29.73;;;17.00;99.90;;;;;;5088772;28;20031;-67
2023/06/23 02:47:03;;;;;;;56.15;30.48;;;17.00;99.90;;;;;;5081280;28;20123;-68
2023/06/23 02:49:30;;;;;;;57.25;32.33;;;17.00;99.90;;;;;;5070961;28;20436;-68
2023/06/23 02:51:59;;;;;;;54.92;31.67;;;17.00;99.90;;;;;;5086806;28;20128;-67
2023/06/23 02:54:31;;;;;;;59.20;34.40;;;17.00;99.90;;;;;;5082923;28;20025;-67
2023/06/23 02:56:58;;;;;;;64.13;35.03;;;17.00;99.90;;;;;;5078149;28;20076;-67
2023/06/23 02:59:26;;;;;;;65.75;38.30;;;17.10;99.90;;;;;;5071423;28;20032;-67
2023/06/23 03:01:54;;;;;;;59.08;33.78;;;17.10;99.90;;;;;;5071337;28;20163;-67
2023/06/23 03:04:22;;;;;;;58.28;34.45;;;17.10;99.90;;;;;;5085836;28;20038;-68
2023/06/23 03:06:47;;;;;;;62.13;36.90;;;17.10;99.90;;;;;;5093855;28;20040;-66
2023/06/23 03:09:13;;;;;;;61.60;37.72;;;17.10;99.90;;;;;;5095044;28;20031;-67
2023/06/23 03:11:39;;;;;;;70.13;39.63;;;17.00;99.90;;;;;;5083428;28;20060;-67
2023/06/23 03:14:05;;;;;;;66.22;40.97;;;17.10;99.90;;;;;;5090660;28;20066;-67
2023/06/23 03:16:44;;;;;;;63.58;40.30;;;17.10;99.90;;;;;;5093692;28;20119;-67
2023/06/23 03:19:42;;;;;;;65.03;39.72;;;17.00;99.90;;;;;;5095177;28;20028;-68
2023/06/23 03:22:16;;;;;;;69.32;43.40;;;17.00;99.90;;;;;;5094963;28;20028;-68
2023/06/23 03:24:45;;;;;;;71.72;44.20;;;17.00;99.90;;;;;;5094158;28;20020;-67
2023/06/23 03:27:13;;;;;;;70.63;42.33;;;17.00;99.90;;;;;;5093960;28;20032;-66
2023/06/23 03:29:43;;;;;;;75.00;43.42;;;17.00;99.90;;;;;;5094402;28;20027;-67
2023/06/23 03:32:14;;;;;;;68.40;43.30;;;17.00;99.90;;;;;;5089638;28;20089;-65
2023/06/23 03:34:47;;;;;;;68.15;42.53;;;17.00;99.90;;;;;;5093512;28;20399;-67
2023/06/23 03:37:17;;;;;;;68.55;43.58;;;17.00;99.90;;;;;;5076697;28;20044;-67
2023/06/23 03:39:47;;;;;;;65.88;42.65;;;17.00;99.90;;;;;;5090107;28;20024;-67
2023/06/23 03:42:13;;;;;;;70.88;43.80;;;17.00;99.90;;;;;;5094138;28;20024;-67
2023/06/23 03:44:47;;;;;;;67.43;41.55;;;17.00;99.90;;;;;;5094378;28;20028;-67
2023/06/23 03:47:21;;;;;;;67.10;41.63;;;17.00;99.90;;;;;;5094483;28;20021;-67
2023/06/23 03:49:55;;;;;;;66.35;40.80;;;17.00;99.90;;;;;;5110611;28;20462;-67
2023/06/23 03:52:23;;;;;;;62.72;41.20;;;17.00;99.90;;;;;;5098963;28;20090;-67
2023/06/23 03:54:52;;;;;;;65.60;40.60;;;17.00;99.90;;;;;;5094687;28;20020;-67
2023/06/23 03:57:20;;;;;;;58.08;38.65;;;17.10;99.90;;;;;;5093965;28;20059;-67
2023/06/23 03:59:49;;;;;;;60.28;38.90;;;17.10;99.90;;;;;;5094248;28;20103;-68
2023/06/23 04:02:17;;;;;;;57.10;38.22;;;17.10;99.90;;;;;;5093967;28;20024;-66
2023/06/23 04:04:44;;;;;;;61.13;39.67;;;17.10;99.90;;;;;;5094486;28;20426;-67
2023/06/23 04:07:11;;;;;;;56.88;37.15;;;17.10;99.90;;;;;;5113976;28;20035;-66
2023/06/23 04:09:45;;;;;;;58.90;34.85;;;17.20;99.90;;;;;;5093236;28;20028;-68
2023/06/23 04:12:13;;;;;;;56.58;33.63;;;17.20;99.90;;;;;;5079055;28;20129;-67
2023/06/23 04:14:41;;;;;;;54.55;34.45;;;17.20;99.90;;;;;;5080084;28;20032;-65
2023/06/23 04:17:09;;;;;;;53.80;34.90;;;17.20;99.90;;;;;;5072334;28;20484;-66
2023/06/23 04:19:36;;;;;;;53.03;34.35;;;17.30;99.90;;;;;;5079293;28;20036;-67
2023/06/23 04:22:06;;;;;;;49.65;32.47;;;17.30;99.90;;;;;;5090223;28;20032;-68
2023/06/23 04:24:33;;;;;;;46.13;30.52;;;17.40;99.90;;;;;;5092740;28;20027;-66
2023/06/23 04:27:01;;;;;;;44.10;28.70;;;17.40;99.90;;;;;;5092785;28;20028;-66
2023/06/23 04:29:27;;;;;;;41.65;28.02;;;17.50;99.90;;;;;;5080606;28;20021;-67
2023/06/23 04:31:54;;;;;;;44.75;28.65;;;17.50;99.90;;;;;;5080954;28;20455;-67
2023/06/23 04:34:20;;;;;;;41.72;27.65;;;17.60;99.90;;;;;;5084824;28;20083;-67
2023/06/23 04:36:56;;;;;;;41.08;26.92;;;17.60;99.90;;;;;;5090157;28;20470;-66
2023/06/23 04:39:27;;;;;;;41.45;26.05;;;17.60;99.90;;;;;;5084941;28;20558;-67
2023/06/23 04:41:59;;;;;;;40.33;27.70;;;17.70;99.90;;;;;;5090708;28;20020;-67
2023/06/23 04:44:28;;;;;;;39.50;26.02;;;17.80;99.90;;;;;;5082949;28;20036;-67
2023/06/23 04:46:58;;;;;;;38.55;26.52;;;17.90;99.90;;;;;;5078373;28;20052;-67
2023/06/23 04:49:27;;;;;;;37.67;25.73;;;17.90;99.90;;;;;;5080535;28;20033;-67
2023/06/23 04:51:56;;;;;;;37.35;24.55;;;18.00;99.90;;;;;;5075975;28;20055;-68
2023/06/23 04:54:27;;;;;;;32.65;21.73;;;18.10;99.90;;;;;;5072893;28;20040;-67
2023/06/23 04:57:00;;;;;;;28.65;19.10;;;18.20;99.90;;;;;;5084423;28;20438;-68
2023/06/23 04:59:30;;;;;;;29.42;18.80;;;18.30;99.90;;;;;;5093455;28;20028;-67
2023/06/23 05:01:58;;;;;;;26.23;16.92;;;18.40;99.90;;;;;;5084962;28;20032;-66
2023/06/23 05:04:25;;;;;;;26.65;17.85;;;18.50;99.90;;;;;;5080223;28;20456;-66
2023/06/23 05:06:52;;;;;;;28.38;19.48;;;18.50;99.90;;;;;;5089141;28;20532;-65
2023/06/23 05:09:19;;;;;;;25.38;15.65;;;18.60;99.90;;;;;;5092993;28;20028;-68
2023/06/23 05:11:48;;;;;;;26.67;16.50;;;18.70;99.90;;;;;;5081184;28;20402;-66
2023/06/23 05:14:16;;;;;;;24.92;14.88;;;18.90;99.90;;;;;;5073142;28;20060;-67
2023/06/23 05:16:43;;;;;;;23.67;14.07;;;19.10;99.90;;;;;;5087678;28;20040;-67
2023/06/23 05:19:10;;;;;;;20.73;12.73;;;19.30;99.90;;;;;;5082721;28;20079;-67
2023/06/23 05:21:37;;;;;;;20.23;12.73;;;19.40;99.90;;;;;;5085444;28;20052;-67
2023/06/23 05:24:07;;;;;;;20.42;11.48;;;19.60;99.90;;;;;;5088630;28;20636;-67
2023/06/23 05:26:34;;;;;;;22.48;12.25;;;19.80;99.90;;;;;;5087953;28;20029;-65
2023/06/23 05:29:04;;;;;;;21.30;12.20;;;20.10;99.90;;;;;;5080445;28;20521;-67
2023/06/23 05:31:30;;;;;;;18.85;10.75;;;20.60;99.90;;;;;;5078011;28;20483;-67
2023/06/23 05:33:57;;;;;;;16.45;9.80;;;21.20;99.90;;;;;;5091966;28;20056;-67
2023/06/23 05:36:24;;;;;;;16.75;9.57;;;21.80;99.90;;;;;;5084580;28;20046;-67
2023/06/23 05:38:53;;;;;;;15.68;8.52;;;22.50;99.90;;;;;;5085956;28;20541;-67
2023/06/23 05:41:18;;;;;;;14.23;8.13;;;23.10;99.90;;;;;;5092665;28;20024;-67
2023/06/23 05:43:44;;;;;;;15.52;7.93;;;23.70;99.90;;;;;;5091460;28;20027;-67
2023/06/23 05:46:14;;;;;;;13.05;8.10;;;24.30;99.90;;;;;;5092919;28;20081;-68
2023/06/23 05:48:46;;;;;;;15.25;8.35;;;24.80;99.90;;;;;;5107991;28;20036;-68
2023/06/23 05:51:15;;;;;;;;;;;25.40;99.90;;;;;;5113171;28;20103;-68
2023/06/23 05:53:42;;;;;;;13.45;7.22;;;26.00;99.90;;;;;;5112467;28;19903;-67
2023/06/23 05:56:14;;;;;;;11.43;6.50;;;26.60;99.90;;;;;;5105195;28;20051;-67
2023/06/23 05:58:46;;;;;;;10.25;5.93;;;27.10;99.90;;;;;;5081613;28;20063;-68
2023/06/23 06:01:17;;;;;;;10.50;5.55;;;27.30;99.90;;;;;;5089768;28;20115;-67
2023/06/23 06:03:46;;;;;;;10.85;5.15;;;27.80;99.90;;;;;;5087020;28;20380;-68
2023/06/23 06:06:13;;;;;;;10.35;5.03;;;28.30;99.90;;;;;;5092675;28;20039;-68
2023/06/23 06:08:40;;;;;;;6.30;4.78;;;29.00;99.50;;;;;;5092321;28;20529;-68
2023/06/23 06:11:09;;;;;;;9.27;5.18;;;29.30;98.70;;;;;;5091901;28;20469;-68
2023/06/23 06:13:38;;;;;;;7.32;4.55;;;29.70;97.90;;;;;;5071495;28;20037;-67
2023/06/23 06:16:07;;;;;;;9.32;4.93;;;29.90;97.10;;;;;;5080240;28;20075;-66
2023/06/23 06:18:34;;;;;;;7.85;4.65;;;30.30;97.00;;;;;;5083076;28;20032;-67
2023/06/23 06:21:01;;;;;;;7.55;4.72;;;30.70;96.20;;;;;;5086335;28;20020;-67
2023/06/23 06:23:30;;;;;;;7.93;4.95;;;31.10;95.70;;;;;;5089780;28;20116;-67
2023/06/23 06:25:56;;;;;;;9.48;4.60;;;31.60;94.90;;;;;;5080519;28;20107;-68
2023/06/23 06:28:25;;;;;;;9.40;5.25;;;31.90;94.50;;;;;;5082845;28;20032;-69
2023/06/23 06:30:53;;;;;;;10.82;5.43;;;32.50;93.90;;;;;;5074398;28;20028;-67
2023/06/23 06:33:20;;;;;;;13.82;8.75;;;32.70;93.10;;;;;;5087946;28;20052;-68
2023/06/23 06:35:49;;;;;;;12.38;8.77;;;32.80;92.40;;;;;;5089882;28;20032;-68
2023/06/23 06:38:16;;;;;;;11.65;7.50;;;32.70;92.30;;;;;;5083747;28;20074;-66
2023/06/23 06:40:46;;;;;;;10.63;7.15;;;32.80;92.20;;;;;;5076264;28;20036;-68
2023/06/23 06:43:12;;;;;;;10.93;7.13;;;32.70;92.20;;;;;;5076980;28;20056;-68
2023/06/23 06:45:37;;;;;;;14.02;8.70;;;32.80;92.00;;;;;;5081358;28;20071;-68
2023/06/23 06:48:04;;;;;;;13.75;9.15;;;32.40;92.10;;;;;;5077264;28;20060;-68
2023/06/23 06:50:32;;;;;;;14.93;10.25;;;31.80;92.80;;;;;;5080484;28;20526;-68
2023/06/23 06:52:59;;;;;;;17.05;9.70;;;31.80;92.60;;;;;;5086126;28;20054;-67
2023/06/23 06:55:25;;;;;;;15.85;10.00;;;32.10;92.40;;;;;;5086581;28;20044;-69
2023/06/23 06:57:51;;;;;;;15.40;9.65;;;32.50;92.00;;;;;;5086932;28;20521;-67
2023/06/23 07:00:19;;;;;;;13.63;8.98;;;33.00;91.50;;;;;;5091128;28;20032;-68
2023/06/23 07:02:45;;;;;;;10.32;7.00;;;33.50;91.00;;;;;;5075668;28;20037;-67
2023/06/23 07:05:13;;;;;;;11.80;7.20;;;33.80;90.40;;;;;;5083411;28;20036;-69
2023/06/23 07:07:39;;;;;;;11.10;7.07;;;34.20;89.90;;;;;;5075218;28;20032;-68
2023/06/23 07:10:05;;;;;;;13.38;7.03;;;34.50;88.70;;;;;;5079598;28;20032;-68
2023/06/23 07:12:31;;;;;;;9.23;6.45;;;34.70;87.90;;;;;;5082721;28;20081;-68
2023/06/23 07:14:57;;;;;;;12.85;7.90;;;34.80;87.70;;;;;;5092563;28;20031;-68
2023/06/23 07:17:23;;;;;;;14.57;8.07;;;35.00;87.00;;;;;;5073064;28;20048;-69
2023/06/23 07:19:48;;;;;;;12.02;5.88;;;35.00;86.70;;;;;;5093338;28;20024;-70
2023/06/23 07:22:14;;;;;;;12.05;6.60;;;35.30;86.50;;;;;;5077618;28;20028;-69
2023/06/23 07:24:40;;;;;;;12.27;6.25;;;35.60;85.60;;;;;;5077070;28;20084;-66
2023/06/23 07:27:06;;;;;;;8.90;5.85;;;35.80;85.30;;;;;;5087649;28;20041;-67
2023/06/23 07:29:32;;;;;;;9.52;5.63;;;35.90;84.60;;;;;;5088245;28;20032;-68
2023/06/23 07:31:58;;;;;;;11.85;6.82;;;35.80;84.40;;;;;;5085229;28;20028;-67
2023/06/23 07:34:23;;;;;;;8.57;5.63;;;35.80;84.10;;;;;;5073092;28;20396;-67
2023/06/23 07:36:49;;;;;;;8.85;6.47;;;35.70;84.10;;;;;;5079568;28;20480;-68
2023/06/23 07:39:14;;;;;;;11.55;7.00;;;35.60;84.20;;;;;;5090860;28;20060;-68
2023/06/23 07:41:40;;;;;;;11.13;7.05;;;35.40;84.00;;;;;;5094235;28;20108;-67
2023/06/23 07:44:05;;;;;;;10.70;6.82;;;35.30;84.00;;;;;;5093977;28;20150;-68
2023/06/23 07:46:32;;;;;;;11.90;6.90;;;35.30;83.90;;;;;;5086415;28;20111;-67
2023/06/23 07:48:58;;;;;;;10.60;5.70;;;35.10;83.20;;;;;;5088974;28;20024;-69
2023/06/23 07:51:23;;;;;;;12.30;6.82;;;34.90;83.50;;;;;;5088000;28;20046;-67
2023/06/23 07:53:49;;;;;;;7.68;5.43;;;34.80;84.20;;;;;;5094399;28;20038;-69
2023/06/23 07:56:14;;;;;;;12.20;6.25;;;34.60;83.80;;;;;;5087056;28;20033;-69
2023/06/23 07:58:40;;;;;;;8.30;5.20;;;34.30;84.20;;;;;;5083007;28;20089;-68
2023/06/23 08:01:06;;;;;;;9.93;5.18;;;33.90;85.00;;;;;;5083204;28;20032;-68
2023/06/23 08:03:32;;;;;;;9.38;5.05;;;33.50;86.90;;;;;;5089962;28;20081;-69
2023/06/23 08:05:58;;;;;;;10.13;5.18;;;32.70;86.80;;;;;;5091705;28;20035;-69
2023/06/23 08:08:23;;;;;;;10.07;5.43;;;32.10;88.00;;;;;;5091341;28;20031;-68
2023/06/23 08:10:49;;;;;;;8.77;5.32;;;31.60;89.30;;;;;;5092447;28;20130;-68
2023/06/23 08:13:14;;;;;;;10.30;5.32;;;31.30;90.10;;;;;;5090798;28;20020;-69
2023/06/23 08:15:41;;;;;;;8.57;4.72;;;31.00;90.40;;;;;;5080167;28;20040;-68
2023/06/23 08:18:07;;;;;;;10.02;5.70;;;31.00;90.50;;;;;;5092487;28;20058;-68
2023/06/23 08:20:33;;;;;;;8.55;5.38;;;31.30;90.20;;;;;;5089553;28;20040;-68
2023/06/23 08:22:58;;;;;;;9.38;5.43;;;31.80;90.30;;;;;;5074033;28;20085;-67
2023/06/23 08:25:24;;;;;;;8.13;5.32;;;32.20;89.40;;;;;;5093896;28;20036;-67
2023/06/23 08:27:49;;;;;;;9.95;5.50;;;32.80;88.80;;;;;;5094113;28;20060;-69
2023/06/23 08:30:15;;;;;;;10.82;5.50;;;33.30;87.90;;;;;;5093747;28;20516;-67
2023/06/23 08:32:41;;;;;;;8.57;4.85;;;33.80;86.40;;;;;;5090654;28;20048;-67
2023/06/23 08:35:07;;;;;;;10.23;5.10;;;34.20;84.40;;;;;;5091692;28;20027;-68
2023/06/23 08:37:32;;;;;;;11.00;5.28;;;34.80;83.90;;;;;;5093733;28;20066;-68
2023/06/23 08:39:58;;;;;;;7.40;4.97;;;35.60;83.40;;;;;;5093575;28;20059;-68
2023/06/23 08:42:25;;;;;;;7.43;4.40;;;36.20;82.10;;;;;;5086065;28;20102;-68
2023/06/23 08:44:52;;;;;;;7.97;5.05;;;36.70;80.80;;;;;;5087619;28;20032;-68
2023/06/23 08:47:19;;;;;;;7.80;5.00;;;37.10;79.80;;;;;;5092282;28;20115;-68
2023/06/23 08:49:47;;;;;;;8.00;4.95;;;37.70;78.20;;;;;;5093326;28;20024;-68
2023/06/23 08:52:14;;;;;;;6.30;4.75;;;38.10;77.00;;;;;;5093246;28;20066;-67
2023/06/23 08:54:40;;;;;;;11.20;5.35;;;38.50;75.80;;;;;;5091432;28;20024;-68
2023/06/23 08:57:07;;;;;;;8.45;4.95;;;39.10;75.30;;;;;;5093113;28;20044;-68
2023/06/23 08:59:33;;;;;;;6.53;4.60;;;39.60;74.40;;;;;;5090858;28;20027;-68
2023/06/23 09:01:59;;;;;;;9.95;4.30;;;39.80;72.60;;;;;;5091987;28;20032;-68
2023/06/23 09:04:24;;;;;;;8.38;4.90;;;40.10;71.50;;;;;;5092925;28;20105;-68
2023/06/23 09:06:50;;;;;;;6.32;4.30;;;40.30;71.30;;;;;;5092963;28;20028;-69
2023/06/23 09:09:18;;;;;;;7.70;4.50;;;40.60;69.50;;;;;;5092485;28;20028;-70
2023/06/23 09:11:43;;;;;;;6.15;4.70;;;40.60;69.30;;;;;;5092169;28;20028;-68
2023/06/23 09:14:10;;;;;;;6.97;4.28;;;40.60;69.10;;;;;;5092802;28;20030;-68
2023/06/23 09:16:37;;;;;;;6.70;4.38;;;40.70;68.40;;;;;;5092888;28;20050;-68
2023/06/23 09:19:04;;;;;;;9.32;4.65;;;40.80;68.00;;;;;;5091915;28;20081;-69
2023/06/23 09:21:31;;;;;;;8.27;4.38;;;40.80;68.50;;;;;;5085147;28;20040;-69
2023/06/23 09:24:07;;;;;;;7.57;4.13;;;41.00;67.90;;;;;;5076398;28;20031;-68
2023/06/23 09:26:47;;;;;;;5.53;4.30;;;40.90;67.20;;;;;;5089825;28;20059;-67
2023/06/23 09:29:24;;;;;;;6.07;4.22;;;41.10;66.60;;;;;;5071803;28;20044;-69
2023/06/23 09:31:51;;;;;;;6.03;3.92;;;41.20;65.80;;;;;;5074853;28;20047;-69
2023/06/23 09:34:29;;;;;;;6.10;3.92;;;41.40;65.80;;;;;;5088768;28;20074;-69
2023/06/23 09:37:09;;;;;;;6.50;4.07;;;41.40;64.60;;;;;;5092805;28;20090;-69
2023/06/23 09:39:36;;;;;;;5.47;3.88;;;41.20;65.00;;;;;;5091375;28;20118;-68
2023/06/23 09:42:12;;;;;;;6.22;4.00;;;41.20;64.50;;;;;;5086748;28;20043;-69
2023/06/23 09:44:46;;;;;;;7.85;4.38;;;41.30;64.40;;;;;;5091953;28;20464;-68
2023/06/23 09:47:14;;;;;;;6.72;4.38;;;41.40;63.20;;;;;;5090150;28;20032;-69
2023/06/23 09:49:42;;;;;;;7.20;4.20;;;41.40;63.20;;;;;;5084203;28;20123;-69
2023/06/23 09:52:09;;;;;;;6.55;3.78;;;41.30;61.90;;;;;;5071642;28;20119;-68
2023/06/23 09:54:36;;;;;;;5.10;3.85;;;41.30;61.50;;;;;;5081052;28;20036;-68
2023/06/23 09:57:22;;;;;;;6.00;3.40;;;41.20;61.80;;;;;;5072023;28;20041;-68
2023/06/23 09:59:53;;;;;;;6.88;3.75;;;41.30;61.40;;;;;;5077176;28;20036;-68
2023/06/23 10:02:29;;;;;;;5.15;3.42;;;41.40;61.50;;;;;;5072654;28;20502;-68
2023/06/23 10:05:02;;;;;;;6.22;3.67;;;41.50;59.00;;;;;;5075590;28;20032;-69
2023/06/23 10:07:29;;;;;;;5.18;3.67;;;41.70;58.70;;;;;;5080744;28;20069;-68
2023/06/23 10:09:57;;;;;;;5.03;3.78;;;41.90;59.70;;;;;;5089117;28;20123;-69
2023/06/23 10:12:27;;;;;;;6.15;3.80;;;42.00;59.80;;;;;;5090081;28;20107;-69
2023/06/23 10:14:57;;;;;;;5.03;4.03;;;41.90;59.50;;;;;;5092376;28;20095;-69
2023/06/23 10:17:23;;;;;;;5.72;3.90;;;42.10;59.50;;;;;;5096110;28;20035;-68
2023/06/23 10:19:51;;;;;;;7.55;3.85;;;42.30;59.00;;;;;;5096288;28;20025;-70
2023/06/23 10:22:19;;;;;;;6.03;3.97;;;42.20;59.00;;;;;;5095784;28;20086;-71
2023/06/23 10:24:47;;;;;;;8.02;3.50;;;42.30;58.50;;;;;;5096290;28;20036;-69
2023/06/23 10:27:21;;;;;;;5.25;3.30;;;42.50;58.40;;;;;;5096686;28;20452;-70
2023/06/23 10:29:54;;;;;;;3.40;3.10;;;42.80;57.50;;;;;;5096023;28;20032;-69
2023/06/23 10:32:26;;;;;;;5.28;3.28;;;42.60;55.80;;;;;;5094417;28;20032;-69
2023/06/23 10:34:56;;;;;;;8.10;3.97;;;42.50;56.40;;;;;;5093696;28;20414;-68
2023/06/23 10:37:23;;;;;;;2.65;2.40;;;42.60;56.30;;;;;;5095661;28;20129;-68
2023/06/23 10:39:56;;;;;;;5.15;3.25;;;42.80;55.10;;;;;;5095675;28;20031;-69
2023/06/23 10:42:23;;;;;;;7.05;2.90;;;42.60;55.30;;;;;;5094934;28;20086;-68
2023/06/23 10:44:50;;;;;;;4.43;3.05;;;42.20;55.30;;;;;;5095620;28;20033;-69
2023/06/23 10:47:16;;;;;;;5.57;3.67;;;41.70;56.00;;;;;;5095707;28;20028;-70
2023/06/23 10:49:44;;;;;;;7.15;4.03;;;41.50;57.20;;;;;;5095603;28;20028;-70
2023/06/23 10:52:10;;;;;;;7.88;3.78;;;41.50;57.10;;;;;;5096104;28;20107;-69
2023/06/23 10:54:35;;;;;;;7.90;3.42;;;41.70;56.90;;;;;;5094576;28;20062;-69
2023/06/23 10:57:09;;;;;;;4.35;2.78;;;42.00;56.70;;;;;;5095485;28;20040;-69
2023/06/23 10:59:35;;;;;;;4.28;3.10;;;42.30;55.70;;;;;;5095815;28;20023;-68
2023/06/23 11:02:01;;;;;;;6.88;3.90;;;42.80;56.00;;;;;;5095912;28;20468;-68
2023/06/23 11:04:28;;;;;;;5.55;3.25;;;43.30;55.10;;;;;;5093926;28;20075;-69
2023/06/23 11:07:12;;;;;;;5.13;3.42;;;43.40;54.80;;;;;;5095327;28;20028;-70
2023/06/23 11:09:58;;;;;;;6.80;3.92;;;43.50;54.80;;;;;;5094172;28;20098;-69
2023/06/23 11:12:38;;;;;;;7.97;3.53;;;43.40;54.30;;;;;;5094743;28;20089;-70
2023/06/23 11:15:15;;;;;;;6.32;3.45;;;43.30;54.30;;;;;;5094274;28;20490;-69
2023/06/23 11:17:49;;;;;;;7.43;3.17;;;43.40;54.90;;;;;;5093981;28;20518;-70
2023/06/23 11:20:24;;;;;;;6.38;3.45;;;43.40;54.40;;;;;;5095505;28;20024;-70
2023/06/23 11:23:09;;;;;;;6.65;3.55;;;43.30;54.60;;;;;;5095532;28;20016;-69
2023/06/23 11:25:39;;;;;;;5.53;2.95;;;42.90;55.50;;;;;;5095533;28;20031;-71
2023/06/23 11:28:37;;;;;;;7.23;3.47;;;42.80;53.80;;;;;;5094963;28;20031;-69
2023/06/23 11:31:11;;;;;;;6.63;3.47;;;42.70;55.00;;;;;;5094406;28;20020;-71
2023/06/23 11:33:39;;;;;;;6.18;3.72;;;42.50;55.70;;;;;;5094407;28;20071;-70
2023/06/23 11:36:07;;;;;;;6.45;3.20;;;42.30;55.00;;;;;;5094815;28;20035;-69
2023/06/23 11:38:35;;;;;;;6.32;3.38;;;42.00;55.40;;;;;;5094885;28;20085;-69
2023/06/23 11:41:02;;;;;;;5.38;3.40;;;41.80;55.50;;;;;;5094652;28;20428;-68
2023/06/23 11:43:32;;;;;;;5.82;3.45;;;41.80;55.30;;;;;;5094355;28;20077;-69
2023/06/23 11:46:10;;;;;;;6.68;2.78;;;41.80;54.40;;;;;;5095191;28;20035;-68
2023/06/23 11:48:36;;;;;;;7.43;3.40;;;41.60;54.50;;;;;;5095342;28;20081;-70
2023/06/23 11:51:06;;;;;;;6.22;3.15;;;41.60;54.30;;;;;;5094886;28;20409;-70
2023/06/23 11:53:32;;;;;;;3.90;2.43;;;41.50;53.70;;;;;;5094872;28;20059;-70
2023/06/23 11:55:59;;;;;;;5.18;2.75;;;41.20;53.80;;;;;;5093363;28;20028;-70
2023/06/23 11:58:32;;;;;;;6.10;3.08;;;41.00;53.10;;;;;;5093330;28;20062;-69
2023/06/23 12:00:59;;;;;;;4.57;2.95;;;41.10;53.70;;;;;;5094361;28;20068;-71
2023/06/23 12:03:29;;;;;;;4.30;2.50;;;41.20;53.20;;;;;;5094203;28;20475;-70
2023/06/23 12:05:55;;;;;;;4.28;2.80;;;41.20;53.10;;;;;;5081539;28;20028;-69
2023/06/23 12:08:26;;;;;;;4.20;2.75;;;41.10;53.30;;;;;;5078043;28;20364;-68
2023/06/23 12:10:53;;;;;;;3.88;2.42;;;40.90;53.90;;;;;;5093579;28;20043;-70
2023/06/23 12:13:19;;;;;;;7.80;5.68;;;40.60;54.10;;;;;;5094587;28;20027;-69
2023/06/23 12:15:45;;;;;;;6.13;4.85;;;40.50;55.00;;;;;;5094436;28;20040;-69
2023/06/23 12:18:11;;;;;;;6.05;3.10;;;40.30;54.90;;;;;;5093988;28;20062;-68
2023/06/23 12:20:45;;;;;;;5.53;3.08;;;39.90;55.70;;;;;;5094080;28;20028;-70
2023/06/23 12:23:11;;;;;;;7.50;4.00;;;39.60;56.30;;;;;;5093681;28;20114;-71
2023/06/23 12:25:45;;;;;;;5.30;2.90;;;39.20;56.80;;;;;;5092737;28;20520;-69
2023/06/23 12:28:20;;;;;;;5.28;3.60;;;38.80;56.70;;;;;;5093896;28;20032;-70
2023/06/23 12:30:49;;;;;;;4.75;3.30;;;38.50;58.00;;;;;;5093834;28;20064;-71
2023/06/23 12:33:18;;;;;;;3.97;2.92;;;38.20;57.80;;;;;;5093845;28;20051;-70
2023/06/23 12:36:04;;;;;;;7.55;4.60;;;38.10;57.60;;;;;;5093662;28;20512;-68
2023/06/23 12:38:32;;;;;;;5.32;3.47;;;38.10;57.50;;;;;;5073211;28;20036;-69
2023/06/23 12:41:20;;;;;;;3.63;3.22;;;37.90;56.70;;;;;;5073537;28;20033;-69
2023/06/23 12:43:47;;;;;;;6.50;3.45;;;37.70;57.20;;;;;;5073835;28;20024;-69
2023/06/23 12:46:15;;;;;;;9.57;4.28;;;37.40;57.40;;;;;;5073673;28;20032;-69